createdAt,value
2023-05-21T00:01:29.844Z,39.80
2023-05-21T00:04:18.592Z,35.72
2023-05-21T00:07:08.399Z,34.55
2023-05-21T00:09:57.148Z,36.08
2023-05-21T00:12:46.029Z,38.22
2023-05-21T00:15:36.556Z,36.88
2023-05-21T00:18:26.431Z,39.20
2023-05-21T00:21:17.276Z,38.05
2023-05-21T00:24:06.186Z,39.83
2023-05-21T00:26:54.902Z,40.22
2023-05-21T00:29:44.508Z,40.05
2023-05-21T00:32:34.805Z,38.72
2023-05-21T00:35:23.597Z,50.05
2023-05-21T00:38:12.402Z,38.80
2023-05-21T00:41:02.492Z,43.58
2023-05-21T00:43:52.899Z,43.25
2023-05-21T00:46:41.798Z,42.97
2023-05-21T00:49:32.418Z,44.70
2023-05-21T00:52:23.015Z,38.58
2023-05-21T00:55:12.017Z,49.17
2023-05-21T00:58:00.849Z,42.92
2023-05-21T01:00:49.614Z,47.20
2023-05-21T01:03:39.316Z,43.38
2023-05-21T01:06:29.545Z,40.50
2023-05-21T01:09:18.460Z,44.25
2023-05-21T01:12:07.822Z,41.47
2023-05-21T01:14:57.647Z,47.35
2023-05-21T01:17:46.569Z,48.30
2023-05-21T01:20:35.384Z,48.20
2023-05-21T01:23:25.580Z,45.63
2023-05-21T01:26:14.342Z,48.90
2023-05-21T01:29:03.158Z,47.53
2023-05-21T01:31:57.604Z,46.70
2023-05-21T01:34:47.765Z,48.47
2023-05-21T01:37:38.761Z,55.65
2023-05-21T01:40:31.851Z,50.65
2023-05-21T01:43:21.539Z,46.50
2023-05-21T01:46:12.382Z,48.70
2023-05-21T01:49:01.522Z,45.75
2023-05-21T01:51:50.445Z,46.33
2023-05-21T01:54:39.213Z,54.17
2023-05-21T01:57:29.402Z,47.03
2023-05-21T02:00:18.773Z,47.03
2023-05-21T02:03:08.045Z,50.50
2023-05-21T02:05:57.039Z,49.40
2023-05-21T02:08:46.613Z,48.97
2023-05-21T02:11:35.335Z,45.33
2023-05-21T02:14:26.432Z,48.97
2023-05-21T02:17:15.197Z,46.60
2023-05-21T02:20:11.469Z,45.45
2023-05-21T02:23:00.225Z,48.72
2023-05-21T02:25:48.964Z,50.03
2023-05-21T02:28:38.470Z,49.75
2023-05-21T02:31:28.636Z,46.63
2023-05-21T02:34:17.670Z,45.25
2023-05-21T02:37:06.680Z,50.80
2023-05-21T02:39:55.730Z,51.97
2023-05-21T02:42:44.559Z,51.05
2023-05-21T02:45:33.360Z,48.30
2023-05-21T02:48:23.575Z,50.55
2023-05-21T02:51:12.414Z,46.10
2023-05-21T02:54:01.147Z,49.47
2023-05-21T02:56:49.912Z,48.53
2023-05-21T02:59:38.719Z,50.90
2023-05-21T03:02:27.540Z,51.08
2023-05-21T03:05:17.793Z,52.85
2023-05-21T03:08:06.700Z,50.92
2023-05-21T03:10:55.877Z,48.05
2023-05-21T03:13:44.656Z,56.28
2023-05-21T03:16:34.776Z,59.20
2023-05-21T03:19:24.860Z,51.38
2023-05-21T03:22:15.043Z,48.80
2023-05-21T03:25:04.361Z,50.28
2023-05-21T03:27:53.627Z,49.40
2023-05-21T03:30:46.443Z,53.22
2023-05-21T03:33:35.521Z,51.75
2023-05-21T03:36:24.268Z,49.42
2023-05-21T03:39:14.638Z,54.72
2023-05-21T03:42:03.514Z,46.75
2023-05-21T03:44:52.280Z,50.00
2023-05-21T03:47:41.865Z,50.78
2023-05-21T03:50:31.099Z,49.60
2023-05-21T03:53:19.841Z,48.30
2023-05-21T03:56:10.058Z,53.20
2023-05-21T03:58:58.861Z,48.25
2023-05-21T04:01:47.612Z,47.63
2023-05-21T04:04:37.179Z,47.90
2023-05-21T04:07:27.302Z,53.17
2023-05-21T04:10:16.075Z,50.95
2023-05-21T04:13:06.519Z,50.13
2023-05-21T04:15:55.769Z,48.15
2023-05-21T04:18:45.687Z,45.58
2023-05-21T04:21:34.616Z,49.65
2023-05-21T04:24:23.426Z,49.67
2023-05-21T04:27:12.261Z,50.47
2023-05-21T04:30:04.318Z,50.47
2023-05-21T04:32:55.001Z,50.72
2023-05-21T04:35:44.633Z,48.95
2023-05-21T04:38:33.488Z,49.08
2023-05-21T04:41:22.253Z,47.08
2023-05-21T04:44:11.195Z,53.05
2023-05-21T04:47:02.235Z,50.58
2023-05-21T04:49:51.146Z,49.50
2023-05-21T04:52:41.444Z,56.80
2023-05-21T04:55:30.179Z,51.10
2023-05-21T04:58:19.327Z,53.65
2023-05-21T05:01:08.936Z,47.50
2023-05-21T05:03:59.166Z,49.83
2023-05-21T05:06:48.460Z,56.13
2023-05-21T05:09:37.361Z,49.50
2023-05-21T05:12:26.123Z,52.45
2023-05-21T05:15:14.896Z,48.78
2023-05-21T05:18:03.785Z,49.03
2023-05-21T05:20:53.892Z,49.70
2023-05-21T05:23:42.633Z,44.25
2023-05-21T05:26:31.392Z,47.33
2023-05-21T05:29:20.183Z,52.45
2023-05-21T05:32:09.913Z,50.55
2023-05-21T05:35:00.400Z,49.30
2023-05-21T05:37:51.722Z,52.03
2023-05-21T05:40:40.519Z,51.55
2023-05-21T05:43:29.241Z,48.72
2023-05-21T05:46:18.009Z,48.35
2023-05-21T05:49:06.742Z,48.78
2023-05-21T05:51:56.634Z,48.30
2023-05-21T05:54:47.103Z,57.78
2023-05-21T05:57:36.064Z,54.17
2023-05-21T06:00:24.883Z,53.30
2023-05-21T06:03:14.093Z,52.50
2023-05-21T06:06:02.929Z,47.50
2023-05-21T06:08:51.734Z,52.72
2023-05-21T06:11:41.851Z,53.33
2023-05-21T06:14:30.615Z,51.70
2023-05-21T06:17:19.340Z,58.30
2023-05-21T06:20:09.034Z,49.80
2023-05-21T06:22:57.844Z,52.92
2023-05-21T06:25:46.581Z,51.42
2023-05-21T06:28:36.949Z,48.30
2023-05-21T06:31:25.717Z,52.75
2023-05-21T06:34:14.518Z,49.10
2023-05-21T06:37:03.299Z,51.75
2023-05-21T06:39:52.083Z,49.63
2023-05-21T06:42:40.901Z,55.63
2023-05-21T06:45:31.125Z,43.80
2023-05-21T06:48:19.894Z,47.15
2023-05-21T06:51:08.606Z,49.33
2023-05-21T06:53:57.431Z,46.72
2023-05-21T06:56:46.221Z,48.75
2023-05-21T06:59:35.057Z,43.70
2023-05-21T07:02:25.212Z,44.22
2023-05-21T07:05:14.076Z,40.47
2023-05-21T07:08:02.944Z,48.85
2023-05-21T07:10:51.887Z,42.97
2023-05-21T07:13:40.586Z,39.83
2023-05-21T07:16:29.387Z,40.22
2023-05-21T07:19:19.397Z,41.53
2023-05-21T07:22:07.850Z,34.78
2023-05-21T07:24:56.367Z,35.03
2023-05-21T07:27:44.759Z,36.05
2023-05-21T07:30:33.277Z,36.85
2023-05-21T07:33:22.730Z,35.90
2023-05-21T07:36:12.563Z,31.98
2023-05-21T07:39:01.710Z,27.80
2023-05-21T07:41:50.245Z,32.78
2023-05-21T07:44:38.760Z,32.50
2023-05-21T07:47:27.400Z,34.10
2023-05-21T07:50:16.155Z,28.25
2023-05-21T07:53:06.014Z,27.85
2023-05-21T07:55:54.465Z,29.80
2023-05-21T07:58:45.663Z,27.67
2023-05-21T08:01:34.442Z,25.70
2023-05-21T08:04:23.139Z,29.25
2023-05-21T08:07:12.946Z,27.60
2023-05-21T08:10:03.198Z,27.58
2023-05-21T08:12:51.754Z,24.50
2023-05-21T08:15:40.413Z,23.40
2023-05-21T08:18:28.856Z,23.88
2023-05-21T08:21:17.707Z,25.30
2023-05-21T08:24:06.446Z,25.42
2023-05-21T08:26:56.454Z,25.88
2023-05-21T08:29:44.947Z,22.65
2023-05-21T08:32:33.466Z,24.83
2023-05-21T08:35:22.013Z,22.00
2023-05-21T08:38:10.586Z,20.65
2023-05-21T08:41:00.075Z,26.58
2023-05-21T08:43:55.773Z,19.70
2023-05-21T08:46:46.514Z,24.40
2023-05-21T08:49:36.248Z,17.92
2023-05-21T08:52:26.597Z,21.48
2023-05-21T08:55:15.488Z,18.55
2023-05-21T08:58:05.880Z,18.73
2023-05-21T09:00:56.133Z,20.48
2023-05-21T09:03:45.409Z,17.25
2023-05-21T09:06:34.082Z,17.15
2023-05-21T09:09:28.329Z,22.98
2023-05-21T09:12:16.832Z,20.15
2023-05-21T09:15:06.469Z,19.40
2023-05-21T09:17:57.598Z,21.08
2023-05-21T09:20:46.425Z,20.15
2023-05-21T09:23:34.950Z,20.42
2023-05-21T09:26:23.672Z,23.02
2023-05-21T09:29:14.407Z,20.88
2023-05-21T09:32:08.091Z,19.55
2023-05-21T09:34:57.908Z,23.33
2023-05-21T09:37:49.393Z,25.85
2023-05-21T09:40:38.279Z,20.75
2023-05-21T09:43:27.050Z,16.80
2023-05-21T09:46:15.588Z,14.80
2023-05-21T09:49:04.112Z,17.08
2023-05-21T09:51:56.486Z,19.08
2023-05-21T09:54:45.932Z,18.27
2023-05-21T09:57:34.434Z,15.45
2023-05-21T10:00:24.195Z,15.93
2023-05-21T10:03:15.034Z,17.45
2023-05-21T10:06:03.996Z,17.40
2023-05-21T10:08:57.074Z,18.90
2023-05-21T10:11:46.486Z,16.42
2023-05-21T10:14:35.933Z,16.75
2023-05-21T10:17:25.990Z,16.02
2023-05-21T10:20:14.565Z,17.63
2023-05-21T10:23:03.549Z,18.08
2023-05-21T10:25:55.026Z,20.73
2023-05-21T10:28:44.019Z,16.27
2023-05-21T10:31:33.706Z,14.35
2023-05-21T10:34:24.543Z,18.00
2023-05-21T10:37:14.436Z,13.75
2023-05-21T10:40:04.603Z,18.42
2023-05-21T10:43:17.545Z,16.70
2023-05-21T10:46:32.170Z,18.13
2023-05-21T10:49:36.348Z,14.85
2023-05-21T10:52:45.310Z,17.17
2023-05-21T10:55:44.198Z,14.07
2023-05-21T10:59:22.326Z,15.65
2023-05-21T11:02:15.699Z,16.13
2023-05-21T11:05:04.659Z,13.38
2023-05-21T11:07:57.341Z,16.25
2023-05-21T11:10:46.057Z,17.75
2023-05-21T11:13:48.849Z,14.52
2023-05-21T11:16:37.795Z,14.07
2023-05-21T11:19:36.271Z,14.52
2023-05-21T11:22:26.124Z,16.25
2023-05-21T11:25:15.545Z,13.30
2023-05-21T11:28:09.424Z,11.82
2023-05-21T11:31:25.806Z,12.98
2023-05-21T11:34:14.857Z,11.00
2023-05-21T11:37:27.852Z,14.07
2023-05-21T11:40:26.696Z,17.63
2023-05-21T11:43:15.259Z,15.80
2023-05-21T11:46:04.134Z,15.63
2023-05-21T11:48:54.959Z,14.30
2023-05-21T11:51:44.649Z,20.75
2023-05-21T11:54:39.367Z,14.27
2023-05-21T11:57:31.315Z,15.43
2023-05-21T12:00:19.783Z,12.52
2023-05-21T12:03:12.959Z,13.15
2023-05-21T12:06:06.655Z,13.68
2023-05-21T12:08:58.274Z,10.80
2023-05-21T12:11:48.492Z,14.93
2023-05-21T12:14:37.270Z,12.50
2023-05-21T12:17:28.161Z,14.10
2023-05-21T12:20:17.164Z,10.15
2023-05-21T12:23:05.805Z,11.38
2023-05-21T12:25:54.464Z,15.20
2023-05-21T12:28:44.351Z,18.05
2023-05-21T12:31:33.034Z,10.45
2023-05-21T12:34:41.592Z,10.20
2023-05-21T12:37:32.606Z,11.75
2023-05-21T12:40:22.205Z,12.10
2023-05-21T12:43:10.860Z,12.00
2023-05-21T12:46:01.158Z,11.13
2023-05-21T12:48:51.567Z,9.85
2023-05-21T12:51:40.767Z,9.95
2023-05-21T12:54:35.153Z,12.27
2023-05-21T12:57:24.860Z,14.35
2023-05-21T13:00:14.394Z,10.57
2023-05-21T13:03:06.570Z,12.20
2023-05-21T13:05:59.923Z,11.05
2023-05-21T13:08:48.351Z,9.43
2023-05-21T13:11:36.786Z,12.25
2023-05-21T13:14:25.272Z,14.82
2023-05-21T13:17:13.691Z,9.55
2023-05-21T13:20:12.433Z,11.40
2023-05-21T13:23:03.402Z,16.13
2023-05-21T13:25:53.400Z,11.73
2023-05-21T13:28:42.726Z,10.82
2023-05-21T13:31:31.370Z,9.68
2023-05-21T13:34:19.873Z,10.93
2023-05-21T13:37:09.856Z,14.57
2023-05-21T13:39:58.555Z,9.27
2023-05-21T13:42:48.803Z,9.13
2023-05-21T13:45:37.245Z,9.60
2023-05-21T13:48:25.672Z,9.60
2023-05-21T13:51:19.894Z,10.52
2023-05-21T13:54:15.779Z,11.10
2023-05-21T13:57:04.692Z,9.77
2023-05-21T13:59:53.204Z,9.00
2023-05-21T14:02:43.310Z,9.40
2023-05-21T14:05:31.933Z,8.55
2023-05-21T14:08:20.950Z,9.60
2023-05-21T14:11:10.791Z,11.90
2023-05-21T14:13:59.501Z,13.13
2023-05-21T14:16:48.217Z,13.88
2023-05-21T14:19:36.805Z,9.63
2023-05-21T14:22:25.524Z,8.88
2023-05-21T14:25:14.264Z,7.90
2023-05-21T14:28:04.366Z,8.57
2023-05-21T14:30:53.168Z,10.68
2023-05-21T14:33:41.952Z,8.40
2023-05-21T14:36:31.156Z,12.20
2023-05-21T14:39:19.993Z,9.55
2023-05-21T14:42:08.812Z,11.98
2023-05-21T14:44:59.074Z,9.50
2023-05-21T14:47:48.889Z,12.90
2023-05-21T14:50:37.865Z,10.43
2023-05-21T14:53:26.603Z,14.85
2023-05-21T14:56:15.583Z,9.95
2023-05-21T14:59:04.275Z,8.05
2023-05-21T15:01:54.525Z,11.32
2023-05-21T15:04:43.292Z,9.65
2023-05-21T15:07:32.024Z,10.05
2023-05-21T15:10:20.885Z,14.77
2023-05-21T15:13:09.660Z,8.93
2023-05-21T15:15:58.571Z,10.65
2023-05-21T15:18:50.141Z,13.10
2023-05-21T15:21:39.246Z,10.52
2023-05-21T15:24:28.020Z,10.02
2023-05-21T15:27:16.729Z,8.93
2023-05-21T15:30:05.822Z,7.95
2023-05-21T15:32:54.794Z,8.63
2023-05-21T15:35:45.226Z,7.45
2023-05-21T15:38:34.173Z,14.60
2023-05-21T15:41:23.130Z,8.82
2023-05-21T15:44:11.938Z,7.97
2023-05-21T15:47:00.978Z,8.00
2023-05-21T15:49:49.851Z,7.50
2023-05-21T15:52:40.150Z,7.35
2023-05-21T15:55:28.850Z,6.40
2023-05-21T15:58:17.966Z,8.10
2023-05-21T16:01:06.808Z,7.25
2023-05-21T16:03:55.695Z,7.65
2023-05-21T16:06:44.588Z,6.78
2023-05-21T16:09:35.435Z,7.15
2023-05-21T16:12:24.165Z,9.95
2023-05-21T16:15:13.013Z,7.85
2023-05-21T16:18:01.891Z,6.43
2023-05-21T16:20:50.720Z,6.32
2023-05-21T16:23:39.594Z,9.00
2023-05-21T16:26:29.797Z,6.20
2023-05-21T16:29:18.589Z,8.07
2023-05-21T16:32:07.480Z,5.63
2023-05-21T16:34:56.265Z,7.38
2023-05-21T16:37:44.973Z,6.72
2023-05-21T16:40:33.763Z,8.60
2023-05-21T16:43:23.871Z,6.47
2023-05-21T16:46:12.722Z,8.05
2023-05-21T16:49:01.459Z,5.45
2023-05-21T16:51:50.298Z,9.55
2023-05-21T16:54:39.023Z,5.47
2023-05-21T16:57:27.520Z,7.15
2023-05-21T17:00:18.168Z,8.40
2023-05-21T17:03:06.829Z,5.47
2023-05-21T17:05:55.387Z,5.93
2023-05-21T17:08:43.869Z,5.53
2023-05-21T17:11:32.583Z,4.75
2023-05-21T17:14:33.197Z,7.32
2023-05-21T17:17:24.798Z,6.40
2023-05-21T17:20:14.216Z,7.28
2023-05-21T17:23:03.061Z,5.97
2023-05-21T17:25:52.661Z,7.45
2023-05-21T17:28:41.666Z,5.70
2023-05-21T17:31:32.118Z,7.63
2023-05-21T17:34:26.330Z,6.60
2023-05-21T17:37:14.992Z,7.82
2023-05-21T17:40:04.369Z,6.18
2023-05-21T17:42:53.105Z,5.97
2023-05-21T17:45:41.555Z,5.65
2023-05-21T17:48:30.099Z,7.35
2023-05-21T17:51:20.054Z,6.82
2023-05-21T17:54:09.019Z,6.43
2023-05-21T17:56:57.714Z,7.25
2023-05-21T17:59:46.171Z,7.50
2023-05-21T18:02:34.643Z,7.25
2023-05-21T18:05:23.589Z,7.05
2023-05-21T18:08:13.404Z,6.38
2023-05-21T18:11:02.173Z,7.80
2023-05-21T18:13:50.684Z,7.95
2023-05-21T18:16:39.239Z,5.97
2023-05-21T18:19:27.821Z,8.23
2023-05-21T18:22:16.347Z,6.35
2023-05-21T18:25:07.038Z,7.13
2023-05-21T18:27:55.630Z,6.00
2023-05-21T18:30:44.127Z,7.05
2023-05-21T18:33:32.616Z,6.47
2023-05-21T18:36:21.057Z,9.65
2023-05-21T18:39:10.593Z,6.25
2023-05-21T18:42:12.193Z,9.13
2023-05-21T18:45:07.920Z,8.23
2023-05-21T18:47:56.450Z,8.18
2023-05-21T18:50:44.968Z,7.30
2023-05-21T18:53:33.452Z,9.65
2023-05-21T18:56:22.526Z,7.97
2023-05-21T18:59:12.350Z,9.82
2023-05-21T19:02:00.782Z,9.63
2023-05-21T19:04:49.827Z,9.05
2023-05-21T19:07:38.315Z,9.60
2023-05-21T19:10:26.834Z,8.20
2023-05-21T19:13:15.478Z,8.15
2023-05-21T19:16:10.868Z,9.55
2023-05-21T19:18:59.567Z,7.97
2023-05-21T19:21:48.055Z,8.02
2023-05-21T19:24:36.554Z,8.57
2023-05-21T19:27:25.042Z,12.05
2023-05-21T19:30:14.100Z,10.75
2023-05-21T19:33:04.307Z,11.65
2023-05-21T19:35:52.884Z,9.55
2023-05-21T19:38:48.126Z,11.68
2023-05-21T19:41:36.577Z,12.30
2023-05-21T19:44:25.079Z,14.05
2023-05-21T19:47:13.838Z,13.98
2023-05-21T19:50:03.979Z,14.20
2023-05-21T19:52:53.485Z,15.07
2023-05-21T19:55:41.998Z,12.90
2023-05-21T19:58:30.855Z,13.73
2023-05-21T20:01:19.398Z,13.82
2023-05-21T20:04:07.970Z,16.55
2023-05-21T20:06:57.844Z,13.57
2023-05-21T20:09:46.631Z,12.88
2023-05-21T20:12:35.621Z,15.40
2023-05-21T20:15:24.159Z,17.13
2023-05-21T20:18:13.254Z,14.57
2023-05-21T20:21:02.597Z,21.50
2023-05-21T20:23:52.583Z,17.50
2023-05-21T20:26:41.071Z,16.95
2023-05-21T20:29:29.953Z,19.42
2023-05-21T20:32:18.538Z,16.33
2023-05-21T20:35:09.968Z,17.98
2023-05-21T20:37:58.606Z,16.30
2023-05-21T20:40:49.020Z,17.30
2023-05-21T20:43:37.757Z,17.52
2023-05-21T20:46:28.067Z,19.58
2023-05-21T20:49:17.690Z,19.20
2023-05-21T20:52:06.567Z,19.45
2023-05-21T20:54:55.711Z,17.88
2023-05-21T20:57:46.122Z,17.77
2023-05-21T21:00:34.873Z,22.08
2023-05-21T21:03:24.499Z,18.35
2023-05-21T21:06:13.610Z,18.05
2023-05-21T21:09:02.381Z,15.70
2023-05-21T21:11:51.167Z,21.95
2023-05-21T21:14:41.325Z,21.52
2023-05-21T21:17:30.236Z,18.38
2023-05-21T21:20:19.470Z,18.63
2023-05-21T21:23:08.226Z,15.63
2023-05-21T21:25:56.995Z,17.15
2023-05-21T21:28:46.623Z,19.38
2023-05-21T21:31:36.979Z,16.98
2023-05-21T21:34:25.659Z,19.35
2023-05-21T21:37:14.433Z,17.00
2023-05-21T21:40:03.356Z,20.23
2023-05-21T21:42:52.197Z,16.63
2023-05-21T21:45:41.057Z,17.65
2023-05-21T21:48:31.187Z,18.13
2023-05-21T21:51:23.139Z,17.02
2023-05-21T21:54:12.354Z,22.80
2023-05-21T21:57:01.142Z,18.80
2023-05-21T21:59:49.906Z,17.48
2023-05-21T22:02:40.251Z,14.38
2023-05-21T22:05:32.659Z,22.08
2023-05-21T22:08:21.420Z,15.50
2023-05-21T22:11:10.368Z,16.70
2023-05-21T22:14:00.321Z,13.63
2023-05-21T22:16:49.114Z,15.75
2023-05-21T22:19:39.253Z,15.50
2023-05-21T22:22:29.408Z,18.20
2023-05-21T22:25:18.171Z,19.27
2023-05-21T22:28:07.221Z,20.17
2023-05-21T22:30:56.110Z,16.17
2023-05-21T22:33:45.133Z,14.75
2023-05-21T22:36:33.925Z,16.42
2023-05-21T22:39:24.073Z,19.20
2023-05-21T22:42:13.037Z,18.67
2023-05-21T22:45:01.999Z,14.35
2023-05-21T22:47:51.917Z,15.20
2023-05-21T22:50:41.017Z,14.32
2023-05-21T22:53:29.955Z,17.92
2023-05-21T22:56:20.024Z,14.45
2023-05-21T22:59:08.766Z,16.88
2023-05-21T23:01:57.712Z,14.82
2023-05-21T23:04:47.734Z,20.17
2023-05-21T23:07:37.751Z,17.05
2023-05-21T23:10:26.536Z,23.40
2023-05-21T23:13:16.587Z,16.23
2023-05-21T23:16:05.962Z,17.17
2023-05-21T23:18:55.781Z,16.58
2023-05-21T23:21:44.853Z,20.88
2023-05-21T23:24:35.131Z,18.15
2023-05-21T23:27:24.014Z,18.13
2023-05-21T23:30:14.334Z,13.68
2023-05-21T23:33:03.274Z,13.40
2023-05-21T23:35:52.076Z,16.40
2023-05-21T23:38:40.919Z,13.35
2023-05-21T23:41:29.685Z,14.60
2023-05-21T23:44:20.270Z,15.85
2023-05-21T23:47:10.416Z,15.13
2023-05-21T23:49:59.122Z,14.65
2023-05-21T23:52:47.872Z,13.30
2023-05-21T23:55:37.139Z,14.38
2023-05-21T23:58:25.834Z,16.77
